createdAt,value
2022-12-22T00:00:17.242Z,21.00
2022-12-22T00:03:02.810Z,21.00
2022-12-22T00:05:48.513Z,21.00
2022-12-22T00:08:34.033Z,21.00
2022-12-22T00:11:20.112Z,21.00
2022-12-22T00:14:05.513Z,21.00
2022-12-22T00:16:53.643Z,21.00
2022-12-22T00:19:39.503Z,21.00
2022-12-22T00:22:37.532Z,21.00
2022-12-22T00:25:23.754Z,21.00
2022-12-22T00:28:09.241Z,21.00
2022-12-22T00:30:55.450Z,21.00
2022-12-22T00:33:43.871Z,21.00
2022-12-22T00:36:30.899Z,21.00
2022-12-22T00:39:18.921Z,21.10
2022-12-22T00:42:04.623Z,21.10
2022-12-22T00:44:49.963Z,21.00
2022-12-22T00:47:43.473Z,21.10
2022-12-22T00:50:29.572Z,21.10
2022-12-22T00:53:16.010Z,21.10
2022-12-22T00:56:01.461Z,21.10
2022-12-22T00:58:46.757Z,21.10
2022-12-22T01:01:32.195Z,21.10
2022-12-22T01:04:17.571Z,21.10
2022-12-22T01:07:02.887Z,21.10
2022-12-22T01:09:48.587Z,21.10
2022-12-22T01:12:43.242Z,21.10
2022-12-22T01:15:35.382Z,21.10
2022-12-22T01:18:21.354Z,21.10
2022-12-22T01:21:07.006Z,21.10
2022-12-22T01:23:52.449Z,21.10
2022-12-22T01:26:37.977Z,21.10
2022-12-22T01:29:23.544Z,21.20
2022-12-22T01:32:08.996Z,21.20
2022-12-22T01:34:55.072Z,21.20
2022-12-22T01:37:40.588Z,21.20
2022-12-22T01:40:39.408Z,21.20
2022-12-22T01:43:44.939Z,21.20
2022-12-22T01:46:52.045Z,21.20
2022-12-22T01:49:38.915Z,21.20
2022-12-22T01:52:25.836Z,21.20
2022-12-22T01:55:13.372Z,21.20
2022-12-22T01:57:58.748Z,21.20
2022-12-22T02:00:44.318Z,21.20
2022-12-22T02:03:40.970Z,21.20
2022-12-22T02:06:46.345Z,21.20
2022-12-22T02:09:58.346Z,21.20
2022-12-22T02:13:23.277Z,21.20
2022-12-22T02:16:18.075Z,21.20
2022-12-22T02:19:14.881Z,21.20
2022-12-22T02:22:16.709Z,21.30
2022-12-22T02:25:11.265Z,21.30
2022-12-22T02:28:00.385Z,21.30
2022-12-22T02:30:46.831Z,21.30
2022-12-22T02:33:32.387Z,21.30
2022-12-22T02:36:57.722Z,21.30
2022-12-22T02:39:57.152Z,21.30
2022-12-22T02:43:04.530Z,21.30
2022-12-22T02:46:19.832Z,21.30
2022-12-22T02:49:38.540Z,21.30
2022-12-22T02:52:47.592Z,21.30
2022-12-22T02:55:35.037Z,21.30
2022-12-22T02:58:20.520Z,21.30
2022-12-22T03:01:06.526Z,21.30
2022-12-22T03:03:51.945Z,21.30
2022-12-22T03:06:37.021Z,21.30
2022-12-22T03:09:22.295Z,21.40
2022-12-22T03:12:07.662Z,21.30
2022-12-22T03:14:53.119Z,21.40
2022-12-22T03:17:38.627Z,21.40
2022-12-22T03:20:24.789Z,21.40
2022-12-22T03:23:10.192Z,21.40
2022-12-22T03:25:55.385Z,21.40
2022-12-22T03:28:27.653Z,21.40
2022-12-22T03:31:06.356Z,21.40
2022-12-22T03:33:33.650Z,21.40
2022-12-22T03:36:00.986Z,21.40
2022-12-22T03:38:28.503Z,21.40
2022-12-22T03:40:55.360Z,21.40
2022-12-22T03:43:40.719Z,21.40
2022-12-22T03:46:17.819Z,21.40
2022-12-22T03:49:09.076Z,21.40
2022-12-22T03:51:47.481Z,21.40
2022-12-22T03:54:17.453Z,21.40
2022-12-22T03:56:44.449Z,21.40
2022-12-22T03:59:12.235Z,21.40
2022-12-22T04:01:45.539Z,21.40
2022-12-22T04:04:13.827Z,21.50
2022-12-22T04:06:40.743Z,21.40
2022-12-22T04:09:07.899Z,21.40
2022-12-22T04:11:53.677Z,21.50
2022-12-22T04:14:23.716Z,21.40
2022-12-22T04:16:53.476Z,21.50
2022-12-22T04:19:20.307Z,21.50
2022-12-22T04:21:47.105Z,21.50
2022-12-22T04:24:14.010Z,21.50
2022-12-22T04:26:40.786Z,21.50
2022-12-22T04:29:07.559Z,21.50
2022-12-22T04:31:34.552Z,21.50
2022-12-22T04:34:01.295Z,21.50
2022-12-22T04:36:28.068Z,21.50
2022-12-22T04:38:54.809Z,21.50
2022-12-22T04:41:21.587Z,21.50
2022-12-22T04:43:48.332Z,21.50
2022-12-22T04:46:15.140Z,21.50
2022-12-22T04:48:41.932Z,21.50
2022-12-22T04:51:09.187Z,21.50
2022-12-22T04:53:36.036Z,21.50
2022-12-22T04:56:06.232Z,21.50
2022-12-22T04:58:33.886Z,21.50
2022-12-22T05:01:18.058Z,21.50
2022-12-22T05:03:45.559Z,21.50
2022-12-22T05:06:15.685Z,21.50
2022-12-22T05:08:43.508Z,21.50
2022-12-22T05:11:10.454Z,21.60
2022-12-22T05:13:37.411Z,21.50
2022-12-22T05:16:09.873Z,21.60
2022-12-22T05:18:38.113Z,21.50
2022-12-22T05:21:12.401Z,21.50
2022-12-22T05:23:39.202Z,21.50
2022-12-22T05:26:06.491Z,21.40
2022-12-22T05:28:33.386Z,21.40
2022-12-22T05:31:06.359Z,21.40
2022-12-22T05:33:33.680Z,21.40
2022-12-22T05:36:00.847Z,21.30
2022-12-22T05:38:27.893Z,21.30
2022-12-22T05:41:01.505Z,21.30
2022-12-22T05:43:30.302Z,21.20
2022-12-22T05:45:58.612Z,21.20
2022-12-22T05:48:30.818Z,21.10
2022-12-22T05:51:00.905Z,21.00
2022-12-22T05:53:27.770Z,21.00
2022-12-22T05:55:54.518Z,21.00
2022-12-22T05:58:21.191Z,21.00
2022-12-22T06:00:47.953Z,21.00
2022-12-22T06:03:15.357Z,21.00
2022-12-22T06:05:42.656Z,20.90
2022-12-22T06:08:09.398Z,20.90
2022-12-22T06:10:36.663Z,20.90
2022-12-22T06:13:03.465Z,20.90
2022-12-22T06:15:30.685Z,20.90
2022-12-22T06:17:57.445Z,20.90
2022-12-22T06:20:24.728Z,20.90
2022-12-22T06:22:51.481Z,20.90
2022-12-22T06:25:19.144Z,20.90
2022-12-22T06:27:47.954Z,20.90
2022-12-22T06:30:16.199Z,20.90
2022-12-22T06:32:43.439Z,20.90
2022-12-22T06:35:11.040Z,20.90
2022-12-22T06:37:38.581Z,20.90
2022-12-22T06:40:08.678Z,20.90
2022-12-22T06:42:53.915Z,20.90
2022-12-22T06:45:20.720Z,20.90
2022-12-22T06:47:47.509Z,20.90
2022-12-22T06:50:14.820Z,20.90
2022-12-22T06:52:41.680Z,20.90
2022-12-22T06:55:09.584Z,20.90
2022-12-22T06:57:36.348Z,20.90
2022-12-22T07:00:05.181Z,20.90
2022-12-22T07:02:32.749Z,20.90
2022-12-22T07:04:59.643Z,20.90
2022-12-22T07:07:26.394Z,20.90
2022-12-22T07:09:53.712Z,20.90
2022-12-22T07:12:21.093Z,21.00
2022-12-22T07:14:47.883Z,21.00
2022-12-22T07:17:14.651Z,20.90
2022-12-22T07:19:41.515Z,20.90
2022-12-22T07:22:09.043Z,20.90
2022-12-22T07:24:35.837Z,20.90
2022-12-22T07:27:03.111Z,20.90
2022-12-22T07:29:29.926Z,20.90
2022-12-22T07:31:57.430Z,20.80
2022-12-22T07:34:24.824Z,20.80
2022-12-22T07:36:52.155Z,20.80
2022-12-22T07:39:19.455Z,20.80
2022-12-22T07:42:04.973Z,20.80
2022-12-22T07:44:31.751Z,20.70
2022-12-22T07:46:59.211Z,20.70
2022-12-22T07:49:44.635Z,20.70
2022-12-22T07:52:11.890Z,20.60
2022-12-22T07:54:42.130Z,20.60
2022-12-22T07:57:09.220Z,20.60
2022-12-22T07:59:36.590Z,20.60
2022-12-22T08:02:03.911Z,20.50
2022-12-22T08:04:30.863Z,20.60
2022-12-22T08:06:58.859Z,20.50
2022-12-22T08:09:28.128Z,20.50
2022-12-22T08:11:55.481Z,20.60
2022-12-22T08:14:24.396Z,20.50
2022-12-22T08:16:51.756Z,20.50
2022-12-22T08:19:18.567Z,20.60
2022-12-22T08:21:52.480Z,20.60
2022-12-22T08:24:20.014Z,20.60
2022-12-22T08:26:50.462Z,20.60
2022-12-22T08:29:23.333Z,20.60
2022-12-22T08:31:50.177Z,20.60
2022-12-22T08:34:17.774Z,20.60
2022-12-22T08:36:47.513Z,20.60
2022-12-22T08:39:16.166Z,20.60
2022-12-22T08:41:52.461Z,20.60
2022-12-22T08:44:24.184Z,20.70
2022-12-22T08:46:52.906Z,20.70
2022-12-22T08:49:20.035Z,20.70
2022-12-22T08:51:47.622Z,20.70
2022-12-22T08:54:15.127Z,20.70
2022-12-22T08:56:43.426Z,20.70
2022-12-22T08:59:10.640Z,20.70
2022-12-22T09:01:39.731Z,20.60
2022-12-22T09:04:07.286Z,20.60
2022-12-22T09:06:40.544Z,20.60
2022-12-22T09:09:10.874Z,20.60
2022-12-22T09:11:39.313Z,20.60
2022-12-22T09:14:06.906Z,20.50
2022-12-22T09:16:35.279Z,20.50
2022-12-22T09:19:02.811Z,20.60
2022-12-22T09:21:32.474Z,20.60
2022-12-22T09:24:01.851Z,20.50
2022-12-22T09:26:29.762Z,20.60
2022-12-22T09:28:56.748Z,20.60
2022-12-22T09:31:25.585Z,20.60
2022-12-22T09:33:53.096Z,20.60
2022-12-22T09:36:28.810Z,20.60
2022-12-22T09:38:56.144Z,20.70
2022-12-22T09:41:42.661Z,20.70
2022-12-22T09:44:28.338Z,20.80
2022-12-22T09:46:57.628Z,20.80
2022-12-22T09:49:24.714Z,20.80
2022-12-22T09:51:56.289Z,20.80
2022-12-22T10:12:25.490Z,20.90
2022-12-22T10:14:54.515Z,21.20
2022-12-22T10:17:29.100Z,21.30
2022-12-22T10:20:14.704Z,21.20
2022-12-22T10:23:15.017Z,20.70
2022-12-22T10:29:11.670Z,20.70
2022-12-22T10:31:58.985Z,20.90
2022-12-22T10:34:25.912Z,21.00
2022-12-22T10:36:58.196Z,21.10
2022-12-22T10:39:27.317Z,21.10
2022-12-22T10:42:00.481Z,21.10
2022-12-22T10:44:33.993Z,21.10
2022-12-22T10:47:17.319Z,21.10
2022-12-22T10:52:29.237Z,21.10
2022-12-22T10:55:18.693Z,21.20
2022-12-22T10:57:46.426Z,21.20
2022-12-22T11:00:23.988Z,21.20
2022-12-22T11:03:00.097Z,21.20
2022-12-22T11:05:28.904Z,21.20
2022-12-22T11:07:56.787Z,21.20
2022-12-22T11:10:46.942Z,21.20
2022-12-22T11:13:38.650Z,21.30
2022-12-22T11:16:23.716Z,21.30
2022-12-22T11:19:04.050Z,21.30
2022-12-22T11:21:44.627Z,21.30
2022-12-22T11:24:40.671Z,21.30
2022-12-22T11:27:17.018Z,21.30
2022-12-22T11:30:02.686Z,21.30
2022-12-22T11:33:13.853Z,21.20
2022-12-22T11:36:04.973Z,21.20
2022-12-22T11:38:40.809Z,21.20
2022-12-22T11:41:35.271Z,21.20
2022-12-22T11:44:40.532Z,21.10
2022-12-22T11:47:46.087Z,21.10
2022-12-22T11:50:58.272Z,21.10
2022-12-22T11:53:31.169Z,21.10
2022-12-22T11:56:13.506Z,21.00
2022-12-22T11:59:02.079Z,21.00
2022-12-22T12:01:37.805Z,21.00
2022-12-22T12:04:35.982Z,21.00
2022-12-22T12:07:36.767Z,21.00
2022-12-22T12:10:35.817Z,21.00
2022-12-22T12:13:25.560Z,21.00
2022-12-22T12:16:05.501Z,21.00
2022-12-22T12:18:41.309Z,21.00
2022-12-22T12:21:30.213Z,21.00
2022-12-22T12:24:33.956Z,21.00
2022-12-22T12:27:23.358Z,21.00
2022-12-22T12:32:56.012Z,21.00
2022-12-22T12:35:43.390Z,21.00
2022-12-22T12:41:55.498Z,21.10
2022-12-22T12:44:29.368Z,21.10
2022-12-22T12:47:04.824Z,21.10
2022-12-22T12:49:34.417Z,21.10
2022-12-22T12:52:05.032Z,21.10
2022-12-22T12:54:39.439Z,21.10
2022-12-22T12:57:12.118Z,21.00
2022-12-22T12:59:41.708Z,21.10
2022-12-22T13:02:27.272Z,21.10
2022-12-22T13:05:12.249Z,21.10
2022-12-22T13:08:06.911Z,21.10
2022-12-22T13:10:37.644Z,21.10
2022-12-22T13:13:11.508Z,21.10
2022-12-22T13:15:42.556Z,21.10
2022-12-22T13:18:29.815Z,21.10
2022-12-22T13:21:34.258Z,21.10
2022-12-22T13:24:22.845Z,21.10
2022-12-22T13:26:44.438Z,21.10
2022-12-22T13:29:21.947Z,21.10
2022-12-22T13:31:59.850Z,21.10
2022-12-22T13:35:29.223Z,21.10
2022-12-22T13:37:45.891Z,21.10
2022-12-22T13:40:20.275Z,21.10
2022-12-22T13:42:54.505Z,21.10
2022-12-22T13:45:33.332Z,21.10
2022-12-22T13:48:04.698Z,21.10
2022-12-22T13:50:36.570Z,21.10
2022-12-22T13:53:07.824Z,21.10
2022-12-22T13:55:36.437Z,21.10
2022-12-22T13:58:26.569Z,21.10
2022-12-22T14:01:12.108Z,21.10
2022-12-22T14:04:02.520Z,21.20
2022-12-22T14:06:37.272Z,21.10
2022-12-22T14:09:30.433Z,21.20
2022-12-22T14:12:08.078Z,21.20
2022-12-22T14:14:43.451Z,21.20
2022-12-22T14:17:16.060Z,21.20
2022-12-22T14:19:43.626Z,21.20
2022-12-22T14:22:17.797Z,21.20
2022-12-22T14:24:55.763Z,21.20
2022-12-22T14:27:39.718Z,21.20
2022-12-22T14:30:31.015Z,21.20
2022-12-22T14:33:23.360Z,21.20
2022-12-22T14:35:52.762Z,21.20
2022-12-22T14:38:25.221Z,21.20
2022-12-22T14:40:57.291Z,21.20
2022-12-22T14:43:26.809Z,21.20
2022-12-22T14:46:06.448Z,21.20
2022-12-22T14:48:46.496Z,21.20
2022-12-22T14:51:18.406Z,21.20
2022-12-22T14:53:54.850Z,21.20
2022-12-22T14:56:23.657Z,21.20
2022-12-22T14:58:51.496Z,21.20
2022-12-22T15:01:29.356Z,21.20
2022-12-22T15:04:05.612Z,21.20
2022-12-22T15:06:40.491Z,21.20
2022-12-22T15:09:47.246Z,21.20
2022-12-22T15:12:18.408Z,21.20
2022-12-22T15:14:49.804Z,21.20
2022-12-22T15:17:26.378Z,21.20
2022-12-22T15:19:57.784Z,21.20
2022-12-22T15:22:25.477Z,21.20
2022-12-22T15:24:52.410Z,21.20
2022-12-22T15:27:19.722Z,21.20
2022-12-22T15:29:46.977Z,21.20
2022-12-22T15:32:14.486Z,21.20
2022-12-22T15:34:41.319Z,21.20
2022-12-22T15:37:12.717Z,21.20
2022-12-22T15:39:40.663Z,21.20
2022-12-22T15:42:07.576Z,21.20
2022-12-22T15:44:38.686Z,21.20
2022-12-22T15:47:06.878Z,21.20
2022-12-22T15:49:33.694Z,21.20
2022-12-22T15:52:03.772Z,21.20
2022-12-22T15:54:33.144Z,21.20
2022-12-22T15:57:00.918Z,21.20
2022-12-22T15:59:29.059Z,21.20
2022-12-22T16:02:01.278Z,21.20
2022-12-22T16:04:29.441Z,21.20
2022-12-22T16:06:57.091Z,21.20
2022-12-22T16:09:27.606Z,21.20
2022-12-22T16:11:54.849Z,21.20
2022-12-22T16:14:24.658Z,21.20
2022-12-22T16:16:51.492Z,21.20
2022-12-22T16:19:19.332Z,21.30
2022-12-22T16:21:49.274Z,21.30
2022-12-22T16:24:34.718Z,21.30
2022-12-22T16:27:02.923Z,21.30
2022-12-22T16:29:29.879Z,21.30
2022-12-22T16:32:18.361Z,21.30
2022-12-22T16:34:45.275Z,21.30
2022-12-22T16:37:12.122Z,21.30
2022-12-22T16:39:38.887Z,21.30
2022-12-22T16:42:06.496Z,21.30
2022-12-22T16:44:33.309Z,21.30
2022-12-22T16:47:02.624Z,21.30
2022-12-22T16:49:29.931Z,21.30
2022-12-22T16:51:56.787Z,21.30
2022-12-22T16:54:24.149Z,21.30
2022-12-22T16:56:51.870Z,21.30
2022-12-22T16:59:20.329Z,21.30
2022-12-22T17:01:55.808Z,21.30
2022-12-22T17:04:28.025Z,21.30
2022-12-22T17:06:56.292Z,21.30
2022-12-22T17:09:31.782Z,21.30
2022-12-22T17:12:00.599Z,21.30
2022-12-22T17:14:37.433Z,21.30
2022-12-22T17:17:04.306Z,21.30
2022-12-22T17:19:31.167Z,21.30
2022-12-22T17:21:58.975Z,21.30
2022-12-22T17:24:28.899Z,21.30
2022-12-22T17:27:01.036Z,21.30
2022-12-22T17:29:28.350Z,21.30
2022-12-22T17:31:56.631Z,21.30
2022-12-22T17:34:23.910Z,21.30
2022-12-22T17:36:51.134Z,21.30
2022-12-22T17:39:21.060Z,21.30
2022-12-22T17:41:55.877Z,21.30
2022-12-22T17:44:27.681Z,21.30
2022-12-22T17:46:54.729Z,21.30
2022-12-22T17:49:22.748Z,21.20
2022-12-22T17:51:49.735Z,21.20
2022-12-22T17:54:25.528Z,21.10
2022-12-22T17:56:58.979Z,21.10
2022-12-22T17:59:25.763Z,21.00
2022-12-22T18:01:52.691Z,20.90
2022-12-22T18:04:19.513Z,20.90
2022-12-22T18:06:46.786Z,20.90
2022-12-22T18:09:25.635Z,20.80
2022-12-22T18:11:53.863Z,20.80
2022-12-22T18:14:22.059Z,20.80
2022-12-22T18:16:51.147Z,20.70
2022-12-22T18:19:17.972Z,20.70
2022-12-22T18:21:45.376Z,20.70
2022-12-22T18:24:17.243Z,20.70
2022-12-22T18:26:44.526Z,20.60
2022-12-22T18:29:20.268Z,20.70
2022-12-22T18:31:47.185Z,20.60
2022-12-22T18:34:14.128Z,20.60
2022-12-22T18:36:42.835Z,20.60
2022-12-22T18:39:17.983Z,20.70
2022-12-22T18:41:45.445Z,20.70
2022-12-22T18:44:19.271Z,20.70
2022-12-22T18:46:47.276Z,20.70
2022-12-22T18:49:14.794Z,20.70
2022-12-22T18:51:43.514Z,20.70
2022-12-22T18:54:36.859Z,20.70
2022-12-22T18:57:03.797Z,20.70
2022-12-22T18:59:38.691Z,20.70
2022-12-22T19:02:25.238Z,20.80
2022-12-22T19:04:52.706Z,20.80
2022-12-22T19:07:22.076Z,20.80
2022-12-22T19:09:50.008Z,20.80
2022-12-22T19:12:20.064Z,20.80
2022-12-22T19:14:51.320Z,20.80
2022-12-22T19:17:25.212Z,20.80
2022-12-22T19:19:54.961Z,20.80
2022-12-22T19:22:21.921Z,20.80
2022-12-22T19:24:49.074Z,20.80
2022-12-22T19:27:27.487Z,20.80
2022-12-22T19:30:02.948Z,20.80
2022-12-22T19:32:36.447Z,20.80
2022-12-22T19:35:03.580Z,20.80
2022-12-22T19:37:31.310Z,20.80
2022-12-22T19:39:58.034Z,20.80
2022-12-22T19:42:30.301Z,20.80
2022-12-22T19:44:57.092Z,20.80
2022-12-22T19:47:26.792Z,20.80
2022-12-22T19:49:53.611Z,20.80
2022-12-22T19:52:20.383Z,20.80
2022-12-22T19:54:47.206Z,20.80
2022-12-22T19:57:22.439Z,20.80
2022-12-22T19:59:51.674Z,20.80
2022-12-22T20:02:21.864Z,20.80
2022-12-22T20:04:50.091Z,20.80
2022-12-22T20:07:20.900Z,20.80
2022-12-22T20:09:48.487Z,20.80
2022-12-22T20:12:35.468Z,20.80
2022-12-22T20:15:26.300Z,20.80
2022-12-22T20:17:55.153Z,20.90
2022-12-22T20:20:25.808Z,20.90
2022-12-22T20:22:56.695Z,20.90
2022-12-22T20:25:26.639Z,20.90
2022-12-22T20:27:54.578Z,20.90
2022-12-22T20:30:24.897Z,20.90
2022-12-22T20:32:51.946Z,20.90
2022-12-22T20:35:18.935Z,21.00
2022-12-22T20:37:46.294Z,20.90
2022-12-22T20:40:31.965Z,21.00
2022-12-22T20:42:59.040Z,21.00
2022-12-22T20:45:30.403Z,21.00
2022-12-22T20:47:59.871Z,21.00
2022-12-22T20:50:30.289Z,21.00
2022-12-22T20:52:57.413Z,21.00
2022-12-22T20:55:27.193Z,21.10
2022-12-22T20:57:54.572Z,21.10
2022-12-22T21:00:27.595Z,21.10
2022-12-22T21:02:54.998Z,21.10
2022-12-22T21:05:21.952Z,21.00
2022-12-22T21:07:50.016Z,21.00
2022-12-22T21:10:21.245Z,21.00
2022-12-22T21:12:48.274Z,21.00
2022-12-22T21:15:22.841Z,21.00
2022-12-22T21:17:58.130Z,21.00
2022-12-22T21:20:28.571Z,21.00
2022-12-22T21:22:55.504Z,21.00
2022-12-22T21:25:23.204Z,21.00
2022-12-22T21:27:51.628Z,21.00
2022-12-22T21:30:24.042Z,21.00
2022-12-22T21:32:52.423Z,21.00
2022-12-22T21:35:31.034Z,21.00
2022-12-22T21:37:59.158Z,21.00
2022-12-22T21:40:27.155Z,21.00
2022-12-22T21:42:54.386Z,21.10
2022-12-22T21:45:24.434Z,21.00
2022-12-22T21:47:51.795Z,21.10
2022-12-22T21:50:33.438Z,21.10
2022-12-22T21:53:00.881Z,21.10
2022-12-22T21:55:29.640Z,21.10
2022-12-22T21:57:57.039Z,21.10
2022-12-22T22:00:25.479Z,21.10
2022-12-22T22:02:53.036Z,21.20
2022-12-22T22:05:35.156Z,21.20
2022-12-22T22:08:03.865Z,21.20
2022-12-22T22:10:39.560Z,21.20
2022-12-22T22:13:06.462Z,21.20
2022-12-22T22:15:34.129Z,21.20
2022-12-22T22:18:06.888Z,21.20
2022-12-22T22:20:34.347Z,21.20
2022-12-22T22:23:01.204Z,21.20
2022-12-22T22:25:28.328Z,21.20
2022-12-22T22:27:59.546Z,21.20
2022-12-22T22:30:27.132Z,21.30
2022-12-22T22:32:55.295Z,21.30
2022-12-22T22:35:22.735Z,21.30
2022-12-22T22:37:53.117Z,21.30
2022-12-22T22:40:22.693Z,21.30
2022-12-22T22:42:52.009Z,21.30
2022-12-22T22:45:24.141Z,21.30
2022-12-22T22:47:51.776Z,21.30
2022-12-22T22:50:22.646Z,21.30
2022-12-22T22:52:49.581Z,21.30
2022-12-22T22:55:16.396Z,21.40
2022-12-22T22:57:43.264Z,21.40
2022-12-22T23:00:13.242Z,21.40
2022-12-22T23:02:40.553Z,21.40
2022-12-22T23:05:08.168Z,21.40
2022-12-22T23:07:36.690Z,21.40
2022-12-22T23:10:05.365Z,21.40
2022-12-22T23:12:34.599Z,21.40
2022-12-22T23:15:01.915Z,21.40
2022-12-22T23:17:29.564Z,21.40
2022-12-22T23:19:56.532Z,21.40
2022-12-22T23:22:24.113Z,21.40
2022-12-22T23:24:53.190Z,21.40
2022-12-22T23:27:20.039Z,21.40
2022-12-22T23:29:47.327Z,21.40
2022-12-22T23:32:14.156Z,21.40
2022-12-22T23:34:40.903Z,21.40
2022-12-22T23:37:12.158Z,21.50
2022-12-22T23:39:42.439Z,21.50
2022-12-22T23:42:09.173Z,21.50
2022-12-22T23:44:35.915Z,21.50
2022-12-22T23:47:03.034Z,21.50
2022-12-22T23:49:30.290Z,21.50
2022-12-22T23:51:57.473Z,21.50
2022-12-22T23:54:24.788Z,21.50
2022-12-22T23:56:51.686Z,21.50
2022-12-22T23:59:18.460Z,21.50
